sensor_id;sensor_type;location;lat;lon;timestamp;pressure;altitude;pressure_sealevel;temperature;humidity
32759;BME280;19125;52.360;9.974;2023-02-26T00:01:29;88775.72;;;-145.17;55.82
32759;BME280;19125;52.360;9.974;2023-02-26T00:03:56;88775.72;;;-145.17;56.00
32759;BME280;19125;52.360;9.974;2023-02-26T00:06:23;88795.56;;;-145.17;55.91
32759;BME280;19125;52.360;9.974;2023-02-26T00:08:50;88835.28;;;-145.17;56.26
32759;BME280;19125;52.360;9.974;2023-02-26T00:11:16;88761.81;;;-145.17;55.94
32759;BME280;19125;52.360;9.974;2023-02-26T00:13:43;88783.66;;;-145.17;55.83
32759;BME280;19125;52.360;9.974;2023-02-26T00:16:35;88787.63;;;-145.17;55.74
32759;BME280;19125;52.360;9.974;2023-02-26T00:19:03;88775.72;;;-145.17;55.87
32759;BME280;19125;52.360;9.974;2023-02-26T00:21:30;88767.78;;;-145.17;55.68
32759;BME280;19125;52.360;9.974;2023-02-26T00:23:56;88738.00;;;-145.17;55.60
32759;BME280;19125;52.360;9.974;2023-02-26T00:26:23;88736.00;;;-145.17;55.78
32759;BME280;19125;52.360;9.974;2023-02-26T00:28:50;88759.84;;;-145.17;55.80
32759;BME280;19125;52.360;9.974;2023-02-26T00:31:17;88811.47;;;-145.17;55.88
32759;BME280;19125;52.360;9.974;2023-02-26T00:33:43;88787.63;;;-145.17;56.05
32759;BME280;19125;52.360;9.974;2023-02-26T00:36:14;88757.84;;;-145.17;56.17
32759;BME280;19125;52.360;9.974;2023-02-26T00:38:46;88787.63;;;-145.17;56.06
32759;BME280;19125;52.360;9.974;2023-02-26T00:41:17;88787.63;;;-145.17;56.59
32759;BME280;19125;52.360;9.974;2023-02-26T00:43:43;88829.34;;;-145.17;56.71
32759;BME280;19125;52.360;9.974;2023-02-26T00:48:43;88833.31;;;-145.17;57.14
32759;BME280;19125;52.360;9.974;2023-02-26T00:54:21;88789.63;;;-145.17;57.22
32759;BME280;19125;52.360;9.974;2023-02-26T00:56:48;88795.56;;;-145.17;57.39
32759;BME280;19125;52.360;9.974;2023-02-26T00:59:15;88775.72;;;-145.17;57.63
32759;BME280;19125;52.360;9.974;2023-02-26T01:01:41;88791.59;;;-145.17;57.80
32759;BME280;19125;52.360;9.974;2023-02-26T01:04:07;88795.56;;;-145.17;57.88
32759;BME280;19125;52.360;9.974;2023-02-26T01:06:34;88783.66;;;-145.17;58.13
32759;BME280;19125;52.360;9.974;2023-02-26T01:09:29;88771.75;;;-145.17;58.26
32759;BME280;19125;52.360;9.974;2023-02-26T01:11:55;88757.84;;;-145.17;58.33
32759;BME280;19125;52.360;9.974;2023-02-26T01:14:22;88757.84;;;-145.17;58.36
32759;BME280;19125;52.360;9.974;2023-02-26T01:17:18;88765.78;;;-145.17;58.54
32759;BME280;19125;52.360;9.974;2023-02-26T01:22:45;88662.53;;;-145.17;59.11
32759;BME280;19125;52.360;9.974;2023-02-26T01:25:18;88569.22;;;-145.17;59.07
32759;BME280;19125;52.360;9.974;2023-02-26T01:27:46;88553.34;;;-145.17;59.19
32759;BME280;19125;52.360;9.974;2023-02-26T01:30:11;88509.66;;;-145.17;59.47
32759;BME280;19125;52.360;9.974;2023-02-26T01:32:59;88473.91;;;-145.17;59.58
32759;BME280;19125;52.360;9.974;2023-02-26T01:38:10;88372.66;;;-145.17;59.70
32759;BME280;19125;52.360;9.974;2023-02-26T01:43:36;88283.31;;;-145.17;59.62
32759;BME280;19125;52.360;9.974;2023-02-26T01:46:13;88138.38;;;-145.17;59.86
32759;BME280;19125;52.360;9.974;2023-02-26T01:48:57;87959.69;;;-145.17;60.03
32759;BME280;19125;52.360;9.974;2023-02-26T01:54:07;87741.31;;;-145.17;60.45
32759;BME280;19125;52.360;9.974;2023-02-26T01:56:33;87503.13;;;-145.17;60.62
32759;BME280;19125;52.360;9.974;2023-02-26T01:58:58;87264.91;;;-145.17;60.87
32759;BME280;19125;52.360;9.974;2023-02-26T02:01:25;87022.78;;;-145.17;60.71
32759;BME280;19125;52.360;9.974;2023-02-26T02:03:50;86717.13;;;-145.17;61.04
32759;BME280;19125;52.360;9.974;2023-02-26T02:06:20;86365.84;;;-145.17;61.05
32759;BME280;19125;52.360;9.974;2023-02-26T02:08:46;85990.81;;;-145.17;61.09
32759;BME280;19125;52.360;9.974;2023-02-26T02:11:12;85530.47;;;-145.17;61.38
32759;BME280;19125;52.360;9.974;2023-02-26T02:13:47;85145.59;;;-145.17;61.49
32759;BME280;19125;52.360;9.974;2023-02-26T02:27:44;81875.53;;;-145.17;62.07
32759;BME280;19125;52.360;9.974;2023-02-26T02:33:17;79505.44;;;-145.17;62.54
32759;BME280;19125;52.360;9.974;2023-02-26T02:35:51;78344.69;;;-145.17;62.39
32759;BME280;19125;52.360;9.974;2023-02-26T02:38:49;77095.19;;;-145.17;62.78
32759;BME280;19125;52.360;9.974;2023-02-26T02:41:23;75723.34;;;-145.17;63.16
32759;BME280;19125;52.360;9.974;2023-02-26T02:43:51;74466.75;;;-145.17;63.10
32759;BME280;19125;52.360;9.974;2023-02-26T02:46:23;73230.31;;;-145.17;63.02
32759;BME280;19125;52.360;9.974;2023-02-26T02:49:00;71984.38;;;-145.17;62.96
32759;BME280;19125;52.360;9.974;2023-02-26T02:51:33;71045.25;;;-145.17;63.18
32759;BME280;19125;52.360;9.974;2023-02-26T02:56:40;69307.94;;;-145.17;63.27
32759;BME280;19125;52.360;9.974;2023-02-26T02:59:48;68584.75;;;-145.17;63.14
32759;BME280;19125;52.360;9.974;2023-02-26T03:04:49;68432.63;;;-145.17;63.54
32759;BME280;19125;52.360;9.974;2023-02-26T03:07:15;68642.06;;;-145.17;63.29
32759;BME280;19125;52.360;9.974;2023-02-26T03:09:41;68904.84;;;-145.17;63.21
32759;BME280;19125;52.360;9.974;2023-02-26T03:12:06;69108.34;;;-145.17;63.33
32759;BME280;19125;52.360;9.974;2023-02-26T03:14:32;69556.91;;;-145.17;63.19
32759;BME280;19125;52.360;9.974;2023-02-26T03:17:19;69505.53;;;-145.17;63.41
32759;BME280;19125;52.360;9.974;2023-02-26T03:20:34;69691.28;;;-145.17;63.27
32759;BME280;19125;52.360;9.974;2023-02-26T03:28:37;71029.44;;;-145.17;63.19
32759;BME280;19125;52.360;9.974;2023-02-26T03:33:59;72462.94;;;-145.17;63.04
32759;BME280;19125;52.360;9.974;2023-02-26T03:36:46;73014.72;;;-145.17;63.00
32759;BME280;19125;52.360;9.974;2023-02-26T03:39:19;74077.00;;;-145.17;63.16
32759;BME280;19125;52.360;9.974;2023-02-26T03:41:55;74504.34;;;-145.17;63.02
32759;BME280;19125;52.360;9.974;2023-02-26T03:44:27;75280.03;;;-145.17;63.05
32759;BME280;19125;52.360;9.974;2023-02-26T03:46:59;76321.13;;;-145.17;62.72
32759;BME280;19125;52.360;9.974;2023-02-26T03:49:31;77453.56;;;-145.17;62.71
32759;BME280;19125;52.360;9.974;2023-02-26T03:52:00;78172.41;;;-145.17;62.63
32759;BME280;19125;52.360;9.974;2023-02-26T03:54:32;78901.25;;;-145.17;62.52
32759;BME280;19125;52.360;9.974;2023-02-26T03:56:59;79465.81;;;-145.17;62.35
32759;BME280;19125;52.360;9.974;2023-02-26T03:59:25;80579.34;;;-145.17;62.22
32759;BME280;19125;52.360;9.974;2023-02-26T04:01:57;81459.28;;;-145.17;62.13
32759;BME280;19125;52.360;9.974;2023-02-26T04:04:29;82184.78;;;-145.17;62.21
32759;BME280;19125;52.360;9.974;2023-02-26T04:06:55;82936.16;;;-145.17;61.89
32759;BME280;19125;52.360;9.974;2023-02-26T04:09:21;83346.63;;;-145.17;61.82
32759;BME280;19125;52.360;9.974;2023-02-26T04:11:48;83907.84;;;-145.17;61.88
32759;BME280;19125;52.360;9.974;2023-02-26T04:14:15;84306.50;;;-145.17;61.77
32759;BME280;19125;52.360;9.974;2023-02-26T04:16:41;84713.13;;;-145.17;61.68
32759;BME280;19125;52.360;9.974;2023-02-26T04:19:07;85026.56;;;-145.17;61.58
32759;BME280;19125;52.360;9.974;2023-02-26T04:21:33;85369.78;;;-145.17;61.36
32759;BME280;19125;52.360;9.974;2023-02-26T04:23:58;85621.75;;;-145.17;61.59
32759;BME280;19125;52.360;9.974;2023-02-26T04:26:23;85909.44;;;-145.17;61.32
32759;BME280;19125;52.360;9.974;2023-02-26T04:28:49;86072.16;;;-145.17;61.40
32759;BME280;19125;52.360;9.974;2023-02-26T04:31:14;86351.97;;;-145.17;61.39
32759;BME280;19125;52.360;9.974;2023-02-26T04:33:39;86548.44;;;-145.17;61.13
32759;BME280;19125;52.360;9.974;2023-02-26T04:36:05;86788.56;;;-145.17;61.03
32759;BME280;19125;52.360;9.974;2023-02-26T04:38:30;87018.81;;;-145.17;60.94
32759;BME280;19125;52.360;9.974;2023-02-26T04:40:56;87215.31;;;-145.17;60.96
32759;BME280;19125;52.360;9.974;2023-02-26T04:43:21;87338.38;;;-145.17;61.03
32759;BME280;19125;52.360;9.974;2023-02-26T04:45:47;87552.75;;;-145.17;60.73
32759;BME280;19125;52.360;9.974;2023-02-26T04:48:14;87747.28;;;-145.17;60.41
32759;BME280;19125;52.360;9.974;2023-02-26T04:50:40;87906.09;;;-145.17;60.52
32759;BME280;19125;52.360;9.974;2023-02-26T04:53:05;88039.13;;;-145.17;60.09
32759;BME280;19125;52.360;9.974;2023-02-26T04:55:30;88128.44;;;-145.17;60.22
32759;BME280;19125;52.360;9.974;2023-02-26T04:57:56;88199.91;;;-145.17;60.22
32759;BME280;19125;52.360;9.974;2023-02-26T05:00:21;88291.25;;;-145.17;60.15
32759;BME280;19125;52.360;9.974;2023-02-26T05:02:46;88410.38;;;-145.17;59.70
32759;BME280;19125;52.360;9.974;2023-02-26T05:05:12;88388.53;;;-145.17;59.78
32759;BME280;19125;52.360;9.974;2023-02-26T05:07:37;88452.06;;;-145.17;59.34
32759;BME280;19125;52.360;9.974;2023-02-26T05:10:05;88533.47;;;-145.17;59.44
32759;BME280;19125;52.360;9.974;2023-02-26T05:12:30;88557.31;;;-145.17;59.25
32759;BME280;19125;52.360;9.974;2023-02-26T05:14:56;88597.03;;;-145.17;59.29
32759;BME280;19125;52.360;9.974;2023-02-26T05:17:21;88557.31;;;-145.17;59.19
32759;BME280;19125;52.360;9.974;2023-02-26T05:19:47;88634.75;;;-145.17;59.07
32759;BME280;19125;52.360;9.974;2023-02-26T05:22:12;88656.59;;;-145.17;58.81
32759;BME280;19125;52.360;9.974;2023-02-26T05:24:38;88668.50;;;-145.17;58.50
32759;BME280;19125;52.360;9.974;2023-02-26T05:27:03;88706.22;;;-145.17;58.66
32759;BME280;19125;52.360;9.974;2023-02-26T05:29:29;88698.28;;;-145.17;58.33
32759;BME280;19125;52.360;9.974;2023-02-26T05:31:54;88736.00;;;-145.17;58.48
32759;BME280;19125;52.360;9.974;2023-02-26T05:34:19;88720.13;;;-145.17;58.44
32759;BME280;19125;52.360;9.974;2023-02-26T05:36:44;88716.16;;;-145.17;58.39
32759;BME280;19125;52.360;9.974;2023-02-26T05:39:10;88739.97;;;-145.17;58.42
32759;BME280;19125;52.360;9.974;2023-02-26T05:41:35;88722.13;;;-145.17;58.42
32759;BME280;19125;52.360;9.974;2023-02-26T05:44:01;88732.03;;;-145.17;58.35
32759;BME280;19125;52.360;9.974;2023-02-26T05:46:26;88759.84;;;-145.17;58.26
32759;BME280;19125;52.360;9.974;2023-02-26T05:48:52;88749.91;;;-145.17;58.72
32759;BME280;19125;52.360;9.974;2023-02-26T05:51:17;88755.88;;;-145.17;58.67
32759;BME280;19125;52.360;9.974;2023-02-26T05:53:44;88712.19;;;-145.17;58.46
32759;BME280;19125;52.360;9.974;2023-02-26T05:56:09;88739.97;;;-145.17;58.54
32759;BME280;19125;52.360;9.974;2023-02-26T05:58:34;88759.84;;;-145.17;58.60
32759;BME280;19125;52.360;9.974;2023-02-26T06:01:00;88732.03;;;-145.17;58.54
32759;BME280;19125;52.360;9.974;2023-02-26T06:03:25;88739.97;;;-145.17;58.44
32759;BME280;19125;52.360;9.974;2023-02-26T06:05:50;88736.00;;;-145.17;58.56
32759;BME280;19125;52.360;9.974;2023-02-26T06:08:16;88736.00;;;-145.17;58.63
32759;BME280;19125;52.360;9.974;2023-02-26T06:10:42;88759.84;;;-145.17;58.38
32759;BME280;19125;52.360;9.974;2023-02-26T06:13:08;88738.00;;;-145.17;58.60
32759;BME280;19125;52.360;9.974;2023-02-26T06:15:33;88743.94;;;-145.17;58.24
32759;BME280;19125;52.360;9.974;2023-02-26T06:17:58;88755.88;;;-145.17;58.23
32759;BME280;19125;52.360;9.974;2023-02-26T06:20:24;88787.63;;;-145.17;58.14
32759;BME280;19125;52.360;9.974;2023-02-26T06:22:49;88726.09;;;-145.17;58.16
32759;BME280;19125;52.360;9.974;2023-02-26T06:25:15;88767.78;;;-145.17;57.98
32759;BME280;19125;52.360;9.974;2023-02-26T06:27:40;88757.84;;;-145.17;58.05
32759;BME280;19125;52.360;9.974;2023-02-26T06:30:06;88773.75;;;-145.17;57.93
32759;BME280;19125;52.360;9.974;2023-02-26T06:32:32;88779.69;;;-145.17;57.93
32759;BME280;19125;52.360;9.974;2023-02-26T06:34:57;88779.69;;;-145.17;57.58
32759;BME280;19125;52.360;9.974;2023-02-26T06:37:23;88775.72;;;-145.17;57.63
32759;BME280;19125;52.360;9.974;2023-02-26T06:39:49;88751.91;;;-145.17;57.73
32759;BME280;19125;52.360;9.974;2023-02-26T06:42:14;88763.81;;;-145.17;57.70
32759;BME280;19125;52.360;9.974;2023-02-26T06:44:40;88767.78;;;-145.17;57.43
32759;BME280;19125;52.360;9.974;2023-02-26T06:47:05;88759.84;;;-145.17;57.28
32759;BME280;19125;52.360;9.974;2023-02-26T06:49:30;88747.94;;;-145.17;57.02
32759;BME280;19125;52.360;9.974;2023-02-26T06:51:56;88741.97;;;-145.17;56.98
32759;BME280;19125;52.360;9.974;2023-02-26T06:54:21;88771.75;;;-145.17;56.95
32759;BME280;19125;52.360;9.974;2023-02-26T06:56:47;88720.13;;;-145.17;56.88
32759;BME280;19125;52.360;9.974;2023-02-26T06:59:12;88751.91;;;-145.17;56.51
32759;BME280;19125;52.360;9.974;2023-02-26T07:01:39;88690.34;;;-145.17;56.29
32759;BME280;19125;52.360;9.974;2023-02-26T07:04:04;88728.06;;;-145.17;56.24
32759;BME280;19125;52.360;9.974;2023-02-26T07:06:30;88648.66;;;-145.17;56.35
32759;BME280;19125;52.360;9.974;2023-02-26T07:08:55;88642.69;;;-145.17;55.86
32759;BME280;19125;52.360;9.974;2023-02-26T07:11:21;88632.75;;;-145.17;55.66
32759;BME280;19125;52.360;9.974;2023-02-26T07:13:46;88601.00;;;-145.17;55.35
32759;BME280;19125;52.360;9.974;2023-02-26T07:16:11;88642.69;;;-145.17;55.10
32759;BME280;19125;52.360;9.974;2023-02-26T07:18:37;88610.91;;;-145.17;54.93
32759;BME280;19125;52.360;9.974;2023-02-26T07:21:03;88599.00;;;-145.17;55.13
32759;BME280;19125;52.360;9.974;2023-02-26T07:23:29;88589.06;;;-145.17;54.97
32759;BME280;19125;52.360;9.974;2023-02-26T07:25:54;88602.97;;;-145.17;54.88
32759;BME280;19125;52.360;9.974;2023-02-26T07:28:22;88561.28;;;-145.17;54.96
32759;BME280;19125;52.360;9.974;2023-02-26T07:30:47;88573.19;;;-145.17;54.59
32759;BME280;19125;52.360;9.974;2023-02-26T07:33:12;88549.38;;;-145.17;54.65
32759;BME280;19125;52.360;9.974;2023-02-26T07:35:38;88539.44;;;-145.17;54.63
32759;BME280;19125;52.360;9.974;2023-02-26T07:38:04;88511.63;;;-145.17;54.37
32759;BME280;19125;52.360;9.974;2023-02-26T07:40:29;88521.56;;;-145.17;54.18
32759;BME280;19125;52.360;9.974;2023-02-26T07:42:54;88505.69;;;-145.17;53.94
32759;BME280;19125;52.360;9.974;2023-02-26T07:45:20;88467.97;;;-145.17;53.94
32759;BME280;19125;52.360;9.974;2023-02-26T07:47:50;88444.13;;;-145.17;53.80
32759;BME280;19125;52.360;9.974;2023-02-26T07:50:17;88440.16;;;-145.17;53.72
32759;BME280;19125;52.360;9.974;2023-02-26T07:52:43;88446.13;;;-145.17;53.36
32759;BME280;19125;52.360;9.974;2023-02-26T07:55:09;88410.38;;;-145.17;53.34
32759;BME280;19125;52.360;9.974;2023-02-26T07:57:34;88432.22;;;-145.17;52.92
32759;BME280;19125;52.360;9.974;2023-02-26T07:59:59;88390.53;;;-145.17;52.53
32759;BME280;19125;52.360;9.974;2023-02-26T08:02:25;88344.84;;;-145.17;52.45
32759;BME280;19125;52.360;9.974;2023-02-26T08:04:50;88328.97;;;-145.17;52.11
32759;BME280;19125;52.360;9.974;2023-02-26T08:07:16;88303.16;;;-145.17;52.15
32759;BME280;19125;52.360;9.974;2023-02-26T08:09:42;88342.88;;;-145.17;52.00
32759;BME280;19125;52.360;9.974;2023-02-26T08:12:08;88315.06;;;-145.17;52.03
32759;BME280;19125;52.360;9.974;2023-02-26T08:14:33;88293.25;;;-145.17;51.82
32759;BME280;19125;52.360;9.974;2023-02-26T08:16:59;88295.22;;;-145.17;51.64
32759;BME280;19125;52.360;9.974;2023-02-26T08:19:24;88283.31;;;-145.17;51.41
32759;BME280;19125;52.360;9.974;2023-02-26T08:21:49;88285.28;;;-145.17;51.21
32759;BME280;19125;52.360;9.974;2023-02-26T08:24:15;88285.28;;;-145.17;51.50
32759;BME280;19125;52.360;9.974;2023-02-26T08:26:40;88263.47;;;-145.17;51.23
32759;BME280;19125;52.360;9.974;2023-02-26T08:29:06;88233.69;;;-145.17;51.19
32759;BME280;19125;52.360;9.974;2023-02-26T08:31:32;88241.63;;;-145.17;51.17
32759;BME280;19125;52.360;9.974;2023-02-26T08:33:59;88243.59;;;-145.17;51.25
32759;BME280;19125;52.360;9.974;2023-02-26T08:36:24;88255.50;;;-145.17;51.11
32759;BME280;19125;52.360;9.974;2023-02-26T08:38:50;88255.50;;;-145.17;50.91
32759;BME280;19125;52.360;9.974;2023-02-26T08:41:15;88219.78;;;-145.17;50.94
32759;BME280;19125;52.360;9.974;2023-02-26T08:43:42;88197.94;;;-145.17;50.69
32759;BME280;19125;52.360;9.974;2023-02-26T08:46:08;88190.00;;;-145.17;50.77
32759;BME280;19125;52.360;9.974;2023-02-26T08:48:34;88191.97;;;-145.17;50.27
32759;BME280;19125;52.360;9.974;2023-02-26T08:50:59;88168.16;;;-145.17;50.43
32759;BME280;19125;52.360;9.974;2023-02-26T08:53:24;88172.13;;;-145.17;50.06
32759;BME280;19125;52.360;9.974;2023-02-26T08:55:51;88116.53;;;-145.17;50.12
32759;BME280;19125;52.360;9.974;2023-02-26T08:58:18;88128.44;;;-145.17;49.64
32759;BME280;19125;52.360;9.974;2023-02-26T09:00:44;88110.59;;;-145.17;49.68
32759;BME280;19125;52.360;9.974;2023-02-26T09:03:09;88090.72;;;-145.17;49.43
32759;BME280;19125;52.360;9.974;2023-02-26T09:05:35;88096.69;;;-145.17;49.00
32759;BME280;19125;52.360;9.974;2023-02-26T09:08:01;88049.03;;;-145.17;48.54
32759;BME280;19125;52.360;9.974;2023-02-26T09:10:27;88039.13;;;-145.17;48.44
32759;BME280;19125;52.360;9.974;2023-02-26T09:12:52;88023.22;;;-145.17;48.90
32759;BME280;19125;52.360;9.974;2023-02-26T09:15:17;87981.53;;;-145.17;48.57
32759;BME280;19125;52.360;9.974;2023-02-26T09:17:44;88005.34;;;-145.17;48.28
32759;BME280;19125;52.360;9.974;2023-02-26T09:20:10;87985.50;;;-145.17;48.01
32759;BME280;19125;52.360;9.974;2023-02-26T09:22:36;87920.00;;;-145.17;47.58
32759;BME280;19125;52.360;9.974;2023-02-26T09:25:02;87898.16;;;-145.17;46.88
32759;BME280;19125;52.360;9.974;2023-02-26T09:27:28;87868.38;;;-145.17;46.23
32759;BME280;19125;52.360;9.974;2023-02-26T09:29:53;87876.31;;;-145.17;46.33
32759;BME280;19125;52.360;9.974;2023-02-26T09:32:19;87910.06;;;-145.17;46.62
32759;BME280;19125;52.360;9.974;2023-02-26T09:34:44;87840.59;;;-145.17;46.23
32759;BME280;19125;52.360;9.974;2023-02-26T09:37:09;87810.81;;;-145.17;45.86
32759;BME280;19125;52.360;9.974;2023-02-26T09:39:35;87834.63;;;-145.17;45.64
32759;BME280;19125;52.360;9.974;2023-02-26T09:44:39;87820.72;;;-145.17;45.90
32759;BME280;19125;52.360;9.974;2023-02-26T09:47:30;87787.00;;;-145.17;45.34
32759;BME280;19125;52.360;9.974;2023-02-26T09:56:23;87687.72;;;-145.17;42.83
32759;BME280;19125;52.360;9.974;2023-02-26T09:58:50;87667.88;;;-145.17;42.29
32759;BME280;19125;52.360;9.974;2023-02-26T10:01:25;87671.84;;;-145.17;42.96
32759;BME280;19125;52.360;9.974;2023-02-26T10:04:27;87659.94;;;-145.17;41.93
32759;BME280;19125;52.360;9.974;2023-02-26T10:07:07;87594.44;;;-145.17;41.14
32759;BME280;19125;52.360;9.974;2023-02-26T10:13:14;87560.69;;;-145.17;40.59
32759;BME280;19125;52.360;9.974;2023-02-26T10:15:47;87554.72;;;-145.17;40.21
32759;BME280;19125;52.360;9.974;2023-02-26T10:18:19;87540.84;;;-145.17;40.24
32759;BME280;19125;52.360;9.974;2023-02-26T10:20:58;87552.75;;;-145.17;40.33
32759;BME280;19125;52.360;9.974;2023-02-26T10:23:35;87524.94;;;-145.17;40.27
32759;BME280;19125;52.360;9.974;2023-02-26T10:26:12;87517.00;;;-145.17;40.18
32759;BME280;19125;52.360;9.974;2023-02-26T10:39:51;87469.38;;;-145.17;38.59
32759;BME280;19125;52.360;9.974;2023-02-26T10:42:24;87425.69;;;-145.17;38.05
32759;BME280;19125;52.360;9.974;2023-02-26T10:47:40;87439.59;;;-145.17;38.02
32759;BME280;19125;52.360;9.974;2023-02-26T10:50:14;87409.81;;;-145.17;37.91
32759;BME280;19125;52.360;9.974;2023-02-26T10:52:43;87401.88;;;-145.17;37.57
32759;BME280;19125;52.360;9.974;2023-02-26T10:58:22;87378.06;;;-145.17;36.47
32759;BME280;19125;52.360;9.974;2023-02-26T11:00:52;87421.72;;;-145.17;36.40
32759;BME280;19125;52.360;9.974;2023-02-26T11:03:45;87409.81;;;-145.17;37.03
32759;BME280;19125;52.360;9.974;2023-02-26T11:06:19;87445.56;;;-145.17;37.15
32759;BME280;19125;52.360;9.974;2023-02-26T11:08:48;87415.78;;;-145.17;37.52
32759;BME280;19125;52.360;9.974;2023-02-26T11:11:34;87413.78;;;-145.17;36.63
32759;BME280;19125;52.360;9.974;2023-02-26T11:14:00;87338.38;;;-145.17;36.06
32759;BME280;19125;52.360;9.974;2023-02-26T11:16:27;87334.41;;;-145.17;35.05
32759;BME280;19125;52.360;9.974;2023-02-26T11:18:54;87360.19;;;-145.17;35.04
32759;BME280;19125;52.360;9.974;2023-02-26T11:21:39;87334.41;;;-145.17;35.07
32759;BME280;19125;52.360;9.974;2023-02-26T11:26:49;87310.56;;;-145.17;34.43
32759;BME280;19125;52.360;9.974;2023-02-26T11:29:19;87318.50;;;-145.17;34.33
32759;BME280;19125;52.360;9.974;2023-02-26T11:31:53;87320.50;;;-145.17;34.24
32759;BME280;19125;52.360;9.974;2023-02-26T11:34:24;87284.78;;;-145.17;34.14
32759;BME280;19125;52.360;9.974;2023-02-26T11:36:52;87314.53;;;-145.17;33.88
32759;BME280;19125;52.360;9.974;2023-02-26T11:39:22;87276.84;;;-145.17;33.46
32759;BME280;19125;52.360;9.974;2023-02-26T11:41:52;87266.91;;;-145.17;33.47
32759;BME280;19125;52.360;9.974;2023-02-26T11:44:27;87256.97;;;-145.17;32.94
32759;BME280;19125;52.360;9.974;2023-02-26T11:46:57;87256.97;;;-145.17;31.72
32759;BME280;19125;52.360;9.974;2023-02-26T11:49:27;87264.91;;;-145.17;31.78
32759;BME280;19125;52.360;9.974;2023-02-26T11:54:35;87223.25;;;-145.17;31.09
32759;BME280;19125;52.360;9.974;2023-02-26T11:57:04;87239.13;;;-145.17;31.56
32759;BME280;19125;52.360;9.974;2023-02-26T11:59:31;87203.38;;;-145.17;31.62
32759;BME280;19125;52.360;9.974;2023-02-26T12:02:11;87183.53;;;-145.17;31.18
32759;BME280;19125;52.360;9.974;2023-02-26T12:04:39;87241.09;;;-145.17;31.94
32759;BME280;19125;52.360;9.974;2023-02-26T12:07:14;87237.13;;;-145.17;32.44
32759;BME280;19125;52.360;9.974;2023-02-26T12:09:41;87231.19;;;-145.17;32.87
32759;BME280;19125;52.360;9.974;2023-02-26T12:20:18;87278.81;;;-145.17;33.37
32759;BME280;19125;52.360;9.974;2023-02-26T12:22:49;87253.00;;;-145.17;32.73
32759;BME280;19125;52.360;9.974;2023-02-26T12:28:24;87255.00;;;-145.17;32.60
32759;BME280;19125;52.360;9.974;2023-02-26T12:33:44;87235.16;;;-145.17;32.62
32759;BME280;19125;52.360;9.974;2023-02-26T12:55:59;87231.19;;;-145.17;31.98
32759;BME280;19125;52.360;9.974;2023-02-26T13:01:21;87258.97;;;-145.17;32.50
32759;BME280;19125;52.360;9.974;2023-02-26T13:17:57;87227.22;;;-145.17;31.72
32759;BME280;19125;52.360;9.974;2023-02-26T13:20:27;87243.09;;;-145.17;31.61
32759;BME280;19125;52.360;9.974;2023-02-26T13:23:41;87177.59;;;-145.17;31.55
32759;BME280;19125;52.360;9.974;2023-02-26T13:26:10;87173.63;;;-145.17;31.05
32759;BME280;19125;52.360;9.974;2023-02-26T13:28:42;87179.56;;;-145.17;30.64
32759;BME280;19125;52.360;9.974;2023-02-26T13:34:00;87179.56;;;-145.17;30.65
32759;BME280;19125;52.360;9.974;2023-02-26T13:36:28;87151.78;;;-145.17;30.43
32759;BME280;19125;52.360;9.974;2023-02-26T13:39:16;87207.34;;;-145.17;30.31
32759;BME280;19125;52.360;9.974;2023-02-26T13:41:58;87189.50;;;-145.17;30.50
32759;BME280;19125;52.360;9.974;2023-02-26T13:50:35;87195.44;;;-145.17;30.95
32759;BME280;19125;52.360;9.974;2023-02-26T13:52:50;87193.47;;;-145.17;30.42
32759;BME280;19125;52.360;9.974;2023-02-26T14:00:48;87167.66;;;-145.17;30.26
32759;BME280;19125;52.360;9.974;2023-02-26T14:08:53;87191.47;;;-145.17;30.11
32759;BME280;19125;52.360;9.974;2023-02-26T14:19:41;87157.75;;;-145.17;30.40
32759;BME280;19125;52.360;9.974;2023-02-26T14:22:20;87183.53;;;-145.17;30.49
32759;BME280;19125;52.360;9.974;2023-02-26T14:32:29;87165.69;;;-145.17;30.02
32759;BME280;19125;52.360;9.974;2023-02-26T14:34:58;87167.66;;;-145.17;30.13
32759;BME280;19125;52.360;9.974;2023-02-26T14:37:25;87175.59;;;-145.17;29.72
32759;BME280;19125;52.360;9.974;2023-02-26T14:39:56;87155.75;;;-145.17;29.68
32759;BME280;19125;52.360;9.974;2023-02-26T14:42:32;87193.47;;;-145.17;29.81
32759;BME280;19125;52.360;9.974;2023-02-26T14:47:41;87199.41;;;-145.17;30.67
32759;BME280;19125;52.360;9.974;2023-02-26T14:50:17;87181.56;;;-145.17;30.52
32759;BME280;19125;52.360;9.974;2023-02-26T14:55:47;87173.63;;;-145.17;31.00
32759;BME280;19125;52.360;9.974;2023-02-26T15:01:14;87151.78;;;-145.17;31.03
32759;BME280;19125;52.360;9.974;2023-02-26T15:09:24;87193.47;;;-145.17;31.47
32759;BME280;19125;52.360;9.974;2023-02-26T15:12:14;87197.44;;;-145.17;31.54
32759;BME280;19125;52.360;9.974;2023-02-26T15:20:49;87227.22;;;-145.17;33.00
32759;BME280;19125;52.360;9.974;2023-02-26T15:23:36;87258.97;;;-145.17;33.30
32759;BME280;19125;52.360;9.974;2023-02-26T15:26:03;87258.97;;;-145.17;33.20
32759;BME280;19125;52.360;9.974;2023-02-26T15:28:39;87205.38;;;-145.17;33.47
32759;BME280;19125;52.360;9.974;2023-02-26T15:31:06;87255.00;;;-145.17;33.44
32759;BME280;19125;52.360;9.974;2023-02-26T15:33:33;87251.03;;;-145.17;33.71
32759;BME280;19125;52.360;9.974;2023-02-26T15:36:07;87253.00;;;-145.17;33.65
32759;BME280;19125;52.360;9.974;2023-02-26T15:38:54;87219.28;;;-145.17;33.16
32759;BME280;19125;52.360;9.974;2023-02-26T15:41:21;87274.84;;;-145.17;34.07
32759;BME280;19125;52.360;9.974;2023-02-26T15:43:49;87266.91;;;-145.17;33.69
32759;BME280;19125;52.360;9.974;2023-02-26T15:46:17;87274.84;;;-145.17;33.87
32759;BME280;19125;52.360;9.974;2023-02-26T15:48:45;87298.66;;;-145.17;34.23
32759;BME280;19125;52.360;9.974;2023-02-26T15:51:12;87258.97;;;-145.17;34.67
32759;BME280;19125;52.360;9.974;2023-02-26T15:53:42;87294.69;;;-145.17;34.08
32759;BME280;19125;52.360;9.974;2023-02-26T15:56:14;87278.81;;;-145.17;34.43
32759;BME280;19125;52.360;9.974;2023-02-26T15:58:47;87290.72;;;-145.17;34.55